sensor_id;sensor_type;location;lat;lon;timestamp;pressure;altitude;pressure_sealevel;temperature
33267;BMP180;19638;49.080;11.896;2023-04-03T00:00:36;96898.00;;;4.10
33267;BMP180;19638;49.080;11.896;2023-04-03T00:04:41;96898.00;;;4.10
33267;BMP180;19638;49.080;11.896;2023-04-03T00:08:49;96903.00;;;4.10
33267;BMP180;19638;49.080;11.896;2023-04-03T00:12:55;96904.00;;;4.10
33267;BMP180;19638;49.080;11.896;2023-04-03T00:16:59;96903.00;;;4.10
33267;BMP180;19638;49.080;11.896;2023-04-03T00:21:04;96910.00;;;4.10
33267;BMP180;19638;49.080;11.896;2023-04-03T00:25:09;96903.00;;;4.00
33267;BMP180;19638;49.080;11.896;2023-04-03T00:29:21;96907.00;;;4.00
33267;BMP180;19638;49.080;11.896;2023-04-03T00:33:24;96909.00;;;4.00
33267;BMP180;19638;49.080;11.896;2023-04-03T00:37:31;96905.00;;;4.00
33267;BMP180;19638;49.080;11.896;2023-04-03T00:41:35;96905.00;;;4.00
33267;BMP180;19638;49.080;11.896;2023-04-03T00:45:39;96916.00;;;4.00
33267;BMP180;19638;49.080;11.896;2023-04-03T00:49:46;96913.00;;;4.00
33267;BMP180;19638;49.080;11.896;2023-04-03T00:53:56;96910.00;;;3.90
33267;BMP180;19638;49.080;11.896;2023-04-03T00:58:01;96907.00;;;3.90
33267;BMP180;19638;49.080;11.896;2023-04-03T01:02:12;96901.00;;;3.90
33267;BMP180;19638;49.080;11.896;2023-04-03T01:06:18;96900.00;;;3.90
33267;BMP180;19638;49.080;11.896;2023-04-03T01:10:23;96905.00;;;3.80
33267;BMP180;19638;49.080;11.896;2023-04-03T01:14:31;96907.00;;;3.70
33267;BMP180;19638;49.080;11.896;2023-04-03T01:18:42;96896.00;;;3.70
33267;BMP180;19638;49.080;11.896;2023-04-03T01:22:54;96901.00;;;3.70
33267;BMP180;19638;49.080;11.896;2023-04-03T01:27:03;96902.00;;;3.70
33267;BMP180;19638;49.080;11.896;2023-04-03T01:31:13;96909.00;;;3.60
33267;BMP180;19638;49.080;11.896;2023-04-03T01:35:21;96914.00;;;3.60
33267;BMP180;19638;49.080;11.896;2023-04-03T01:39:24;96918.00;;;3.60
33267;BMP180;19638;49.080;11.896;2023-04-03T01:43:27;96917.00;;;3.70
33267;BMP180;19638;49.080;11.896;2023-04-03T01:47:34;96919.00;;;3.70
33267;BMP180;19638;49.080;11.896;2023-04-03T01:51:40;96922.00;;;3.70
33267;BMP180;19638;49.080;11.896;2023-04-03T01:55:45;96927.00;;;3.70
33267;BMP180;19638;49.080;11.896;2023-04-03T01:59:49;96931.00;;;3.60
33267;BMP180;19638;49.080;11.896;2023-04-03T02:03:54;96927.00;;;3.60
33267;BMP180;19638;49.080;11.896;2023-04-03T02:07:58;96925.00;;;3.60
33267;BMP180;19638;49.080;11.896;2023-04-03T02:12:01;96925.00;;;3.60
33267;BMP180;19638;49.080;11.896;2023-04-03T02:16:07;96920.00;;;3.60
33267;BMP180;19638;49.080;11.896;2023-04-03T02:20:12;96923.00;;;3.60
33267;BMP180;19638;49.080;11.896;2023-04-03T02:24:17;96916.00;;;3.60
33267;BMP180;19638;49.080;11.896;2023-04-03T02:28:20;96922.00;;;3.60
33267;BMP180;19638;49.080;11.896;2023-04-03T02:32:23;96932.00;;;3.60
33267;BMP180;19638;49.080;11.896;2023-04-03T02:36:28;96925.00;;;3.50
33267;BMP180;19638;49.080;11.896;2023-04-03T02:40:37;96924.00;;;3.50
33267;BMP180;19638;49.080;11.896;2023-04-03T02:44:40;96919.00;;;3.50
33267;BMP180;19638;49.080;11.896;2023-04-03T02:48:46;96920.00;;;3.50
33267;BMP180;19638;49.080;11.896;2023-04-03T02:52:49;96925.00;;;3.50
33267;BMP180;19638;49.080;11.896;2023-04-03T02:57:00;96930.00;;;3.50
33267;BMP180;19638;49.080;11.896;2023-04-03T03:01:07;96925.00;;;3.50
33267;BMP180;19638;49.080;11.896;2023-04-03T03:05:10;96923.00;;;3.50
33267;BMP180;19638;49.080;11.896;2023-04-03T03:09:13;96924.00;;;3.50
33267;BMP180;19638;49.080;11.896;2023-04-03T03:13:18;96919.00;;;3.50
33267;BMP180;19638;49.080;11.896;2023-04-03T03:17:24;96920.00;;;3.40
33267;BMP180;19638;49.080;11.896;2023-04-03T03:21:29;96925.00;;;3.40
33267;BMP180;19638;49.080;11.896;2023-04-03T03:25:38;96913.00;;;3.40
33267;BMP180;19638;49.080;11.896;2023-04-03T03:29:46;96922.00;;;3.30
33267;BMP180;19638;49.080;11.896;2023-04-03T03:33:50;96922.00;;;3.30
33267;BMP180;19638;49.080;11.896;2023-04-03T03:37:55;96910.00;;;3.30
33267;BMP180;19638;49.080;11.896;2023-04-03T03:42:01;96919.00;;;3.30
33267;BMP180;19638;49.080;11.896;2023-04-03T03:46:07;96922.00;;;3.30
33267;BMP180;19638;49.080;11.896;2023-04-03T03:50:11;96921.00;;;3.30
33267;BMP180;19638;49.080;11.896;2023-04-03T03:54:14;96922.00;;;3.30
33267;BMP180;19638;49.080;11.896;2023-04-03T03:58:20;96919.00;;;3.30
33267;BMP180;19638;49.080;11.896;2023-04-03T04:02:25;96920.00;;;3.30
33267;BMP180;19638;49.080;11.896;2023-04-03T04:06:31;96912.00;;;3.20
33267;BMP180;19638;49.080;11.896;2023-04-03T04:10:35;96926.00;;;3.30
33267;BMP180;19638;49.080;11.896;2023-04-03T04:14:41;96929.00;;;3.30
33267;BMP180;19638;49.080;11.896;2023-04-03T04:18:52;96930.00;;;3.30
33267;BMP180;19638;49.080;11.896;2023-04-03T04:22:59;96934.00;;;3.20
33267;BMP180;19638;49.080;11.896;2023-04-03T04:27:03;96932.00;;;3.20
33267;BMP180;19638;49.080;11.896;2023-04-03T04:31:12;96935.00;;;3.20
33267;BMP180;19638;49.080;11.896;2023-04-03T04:35:17;96936.00;;;3.20
33267;BMP180;19638;49.080;11.896;2023-04-03T04:39:21;96939.00;;;3.20
33267;BMP180;19638;49.080;11.896;2023-04-03T04:43:24;96936.00;;;3.20
33267;BMP180;19638;49.080;11.896;2023-04-03T04:47:28;96939.00;;;3.20
33267;BMP180;19638;49.080;11.896;2023-04-03T04:51:33;96941.00;;;3.10
33267;BMP180;19638;49.080;11.896;2023-04-03T04:55:52;96949.00;;;3.10
33267;BMP180;19638;49.080;11.896;2023-04-03T04:59:55;96947.00;;;3.10
33267;BMP180;19638;49.080;11.896;2023-04-03T05:04:00;96943.00;;;3.10
33267;BMP180;19638;49.080;11.896;2023-04-03T05:08:07;96949.00;;;3.10
33267;BMP180;19638;49.080;11.896;2023-04-03T05:12:12;96946.00;;;3.10
33267;BMP180;19638;49.080;11.896;2023-04-03T05:16:15;96957.00;;;3.20
33267;BMP180;19638;49.080;11.896;2023-04-03T05:20:18;96955.00;;;3.20
33267;BMP180;19638;49.080;11.896;2023-04-03T05:24:27;96958.00;;;3.20
33267;BMP180;19638;49.080;11.896;2023-04-03T05:28:31;96956.00;;;3.30
33267;BMP180;19638;49.080;11.896;2023-04-03T05:32:34;96959.00;;;3.30
33267;BMP180;19638;49.080;11.896;2023-04-03T05:36:42;96961.00;;;3.40
33267;BMP180;19638;49.080;11.896;2023-04-03T05:40:49;96962.00;;;3.40
33267;BMP180;19638;49.080;11.896;2023-04-03T05:44:55;96958.00;;;3.40
33267;BMP180;19638;49.080;11.896;2023-04-03T05:48:58;96962.00;;;3.50
33267;BMP180;19638;49.080;11.896;2023-04-03T05:53:04;96972.00;;;3.50
33267;BMP180;19638;49.080;11.896;2023-04-03T05:57:10;96970.00;;;3.50
33267;BMP180;19638;49.080;11.896;2023-04-03T06:01:13;96970.00;;;3.60
33267;BMP180;19638;49.080;11.896;2023-04-03T06:05:19;96982.00;;;3.70
33267;BMP180;19638;49.080;11.896;2023-04-03T06:09:26;96980.00;;;3.70
33267;BMP180;19638;49.080;11.896;2023-04-03T06:13:32;96973.00;;;3.80
33267;BMP180;19638;49.080;11.896;2023-04-03T06:17:36;96977.00;;;3.90
33267;BMP180;19638;49.080;11.896;2023-04-03T06:21:40;96984.00;;;3.90
33267;BMP180;19638;49.080;11.896;2023-04-03T06:25:44;96983.00;;;4.10
33267;BMP180;19638;49.080;11.896;2023-04-03T06:29:49;96986.00;;;4.20
33267;BMP180;19638;49.080;11.896;2023-04-03T06:33:55;96988.00;;;4.20
33267;BMP180;19638;49.080;11.896;2023-04-03T06:38:01;96988.00;;;4.20
33267;BMP180;19638;49.080;11.896;2023-04-03T06:42:05;97004.00;;;4.30
33267;BMP180;19638;49.080;11.896;2023-04-03T06:46:14;96993.00;;;4.40
33267;BMP180;19638;49.080;11.896;2023-04-03T06:50:19;97008.00;;;4.60
33267;BMP180;19638;49.080;11.896;2023-04-03T06:54:23;97006.00;;;4.60
33267;BMP180;19638;49.080;11.896;2023-04-03T06:58:29;97018.00;;;4.70
33267;BMP180;19638;49.080;11.896;2023-04-03T07:02:37;97022.00;;;4.80
33267;BMP180;19638;49.080;11.896;2023-04-03T07:06:44;97022.00;;;4.90
33267;BMP180;19638;49.080;11.896;2023-04-03T07:10:47;97030.00;;;5.00
33267;BMP180;19638;49.080;11.896;2023-04-03T07:14:50;97028.00;;;5.10
33267;BMP180;19638;49.080;11.896;2023-04-03T07:18:58;97036.00;;;5.10
33267;BMP180;19638;49.080;11.896;2023-04-03T07:23:02;97037.00;;;5.20
33267;BMP180;19638;49.080;11.896;2023-04-03T07:27:05;97043.00;;;5.40
33267;BMP180;19638;49.080;11.896;2023-04-03T07:31:12;97048.00;;;5.60
33267;BMP180;19638;49.080;11.896;2023-04-03T07:35:23;97044.00;;;5.60
33267;BMP180;19638;49.080;11.896;2023-04-03T07:39:26;97052.00;;;5.70
33267;BMP180;19638;49.080;11.896;2023-04-03T07:43:29;97052.00;;;5.80
33267;BMP180;19638;49.080;11.896;2023-04-03T07:47:32;97048.00;;;5.80
33267;BMP180;19638;49.080;11.896;2023-04-03T07:51:38;97060.00;;;6.00
33267;BMP180;19638;49.080;11.896;2023-04-03T07:55:45;97061.00;;;6.20
33267;BMP180;19638;49.080;11.896;2023-04-03T07:59:48;97060.00;;;6.20
33267;BMP180;19638;49.080;11.896;2023-04-03T08:03:51;97045.00;;;6.10
33267;BMP180;19638;49.080;11.896;2023-04-03T08:08:02;97056.00;;;6.00
33267;BMP180;19638;49.080;11.896;2023-04-03T08:12:18;97058.00;;;6.00
33267;BMP180;19638;49.080;11.896;2023-04-03T08:16:24;97059.00;;;6.30
33267;BMP180;19638;49.080;11.896;2023-04-03T08:20:29;97059.00;;;6.70
33267;BMP180;19638;49.080;11.896;2023-04-03T08:24:34;97061.00;;;7.10
33267;BMP180;19638;49.080;11.896;2023-04-03T08:28:42;97052.00;;;7.50
33267;BMP180;19638;49.080;11.896;2023-04-03T08:32:47;97057.00;;;8.00
33267;BMP180;19638;49.080;11.896;2023-04-03T08:36:51;97065.00;;;8.60
33267;BMP180;19638;49.080;11.896;2023-04-03T08:41:10;97068.00;;;7.50
33267;BMP180;19638;49.080;11.896;2023-04-03T08:45:16;97059.00;;;7.20
33267;BMP180;19638;49.080;11.896;2023-04-03T08:49:27;97071.00;;;7.20
33267;BMP180;19638;49.080;11.896;2023-04-03T08:53:35;97075.00;;;7.10
33267;BMP180;19638;49.080;11.896;2023-04-03T08:57:47;97079.00;;;7.00
33267;BMP180;19638;49.080;11.896;2023-04-03T09:01:52;97077.00;;;6.90
33267;BMP180;19638;49.080;11.896;2023-04-03T09:06:01;97084.00;;;6.80
33267;BMP180;19638;49.080;11.896;2023-04-03T09:10:12;97081.00;;;6.80
33267;BMP180;19638;49.080;11.896;2023-04-03T09:14:24;97086.00;;;6.60
33267;BMP180;19638;49.080;11.896;2023-04-03T09:18:31;97079.00;;;6.60
33267;BMP180;19638;49.080;11.896;2023-04-03T09:22:38;97079.00;;;6.40
33267;BMP180;19638;49.080;11.896;2023-04-03T09:26:56;97085.00;;;6.80
33267;BMP180;19638;49.080;11.896;2023-04-03T09:31:16;97085.00;;;7.90
33267;BMP180;19638;49.080;11.896;2023-04-03T09:35:24;97094.00;;;8.30
33267;BMP180;19638;49.080;11.896;2023-04-03T09:39:51;97094.00;;;7.40
33267;BMP180;19638;49.080;11.896;2023-04-03T09:43:55;97094.00;;;6.90
33267;BMP180;19638;49.080;11.896;2023-04-03T09:48:13;97089.00;;;6.80
33267;BMP180;19638;49.080;11.896;2023-04-03T09:52:25;97082.00;;;6.80
33267;BMP180;19638;49.080;11.896;2023-04-03T09:56:29;97090.00;;;8.20
33267;BMP180;19638;49.080;11.896;2023-04-03T10:00:37;97086.00;;;7.70
33267;BMP180;19638;49.080;11.896;2023-04-03T10:04:43;97084.00;;;7.90
33267;BMP180;19638;49.080;11.896;2023-04-03T10:08:59;97084.00;;;8.60
33267;BMP180;19638;49.080;11.896;2023-04-03T10:13:11;97084.00;;;9.40
33267;BMP180;19638;49.080;11.896;2023-04-03T10:17:30;97081.00;;;9.90
33267;BMP180;19638;49.080;11.896;2023-04-03T10:21:44;97078.00;;;9.70
33267;BMP180;19638;49.080;11.896;2023-04-03T10:26:08;97080.00;;;9.30
33267;BMP180;19638;49.080;11.896;2023-04-03T10:30:40;97074.00;;;8.90
33267;BMP180;19638;49.080;11.896;2023-04-03T10:34:45;97072.00;;;8.50
33267;BMP180;19638;49.080;11.896;2023-04-03T10:39:14;97073.00;;;7.80
33267;BMP180;19638;49.080;11.896;2023-04-03T10:43:27;97070.00;;;7.90
33267;BMP180;19638;49.080;11.896;2023-04-03T10:47:38;97071.00;;;8.20
33267;BMP180;19638;49.080;11.896;2023-04-03T10:51:48;97060.00;;;8.00
33267;BMP180;19638;49.080;11.896;2023-04-03T10:55:58;97062.00;;;8.20
33267;BMP180;19638;49.080;11.896;2023-04-03T11:00:06;97063.00;;;8.30
33267;BMP180;19638;49.080;11.896;2023-04-03T11:04:20;97068.00;;;8.30
33267;BMP180;19638;49.080;11.896;2023-04-03T11:08:30;97058.00;;;8.30
33267;BMP180;19638;49.080;11.896;2023-04-03T11:12:41;97058.00;;;8.50
33267;BMP180;19638;49.080;11.896;2023-04-03T11:16:57;97051.00;;;8.40
33267;BMP180;19638;49.080;11.896;2023-04-03T11:21:06;97055.00;;;8.70
33267;BMP180;19638;49.080;11.896;2023-04-03T11:25:20;97061.00;;;8.70
33267;BMP180;19638;49.080;11.896;2023-04-03T11:29:29;97058.00;;;8.60
33267;BMP180;19638;49.080;11.896;2023-04-03T11:33:47;97042.00;;;9.30
33267;BMP180;19638;49.080;11.896;2023-04-03T11:37:54;97051.00;;;9.10
33267;BMP180;19638;49.080;11.896;2023-04-03T11:42:14;97042.00;;;8.70
33267;BMP180;19638;49.080;11.896;2023-04-03T11:46:19;97038.00;;;8.90
33267;BMP180;19638;49.080;11.896;2023-04-03T11:50:31;97031.00;;;8.30
33267;BMP180;19638;49.080;11.896;2023-04-03T11:54:51;97027.00;;;7.80
33267;BMP180;19638;49.080;11.896;2023-04-03T11:59:22;97026.00;;;8.00
33267;BMP180;19638;49.080;11.896;2023-04-03T12:04:10;97030.00;;;8.30
33267;BMP180;19638;49.080;11.896;2023-04-03T12:08:24;97028.00;;;8.30
33267;BMP180;19638;49.080;11.896;2023-04-03T12:12:34;97027.00;;;8.00
33267;BMP180;19638;49.080;11.896;2023-04-03T12:16:43;97027.00;;;7.70
33267;BMP180;19638;49.080;11.896;2023-04-03T12:20:56;97023.00;;;7.60
33267;BMP180;19638;49.080;11.896;2023-04-03T12:25:46;97009.00;;;7.50
33267;BMP180;19638;49.080;11.896;2023-04-03T12:29:56;97018.00;;;7.60
33267;BMP180;19638;49.080;11.896;2023-04-03T12:34:18;97011.00;;;7.70
33267;BMP180;19638;49.080;11.896;2023-04-03T12:38:57;97010.00;;;8.40
33267;BMP180;19638;49.080;11.896;2023-04-03T12:43:21;97022.00;;;8.70
33267;BMP180;19638;49.080;11.896;2023-04-03T12:47:34;97007.00;;;8.80
33267;BMP180;19638;49.080;11.896;2023-04-03T12:51:45;97007.00;;;8.70
33267;BMP180;19638;49.080;11.896;2023-04-03T12:55:55;97005.00;;;8.40
33267;BMP180;19638;49.080;11.896;2023-04-03T13:00:28;97000.00;;;8.10
33267;BMP180;19638;49.080;11.896;2023-04-03T13:04:34;96976.00;;;8.30
33267;BMP180;19638;49.080;11.896;2023-04-03T13:08:48;96976.00;;;8.90
33267;BMP180;19638;49.080;11.896;2023-04-03T13:12:54;97007.00;;;9.20
33267;BMP180;19638;49.080;11.896;2023-04-03T13:16:59;96988.00;;;8.80
33267;BMP180;19638;49.080;11.896;2023-04-03T13:21:15;96987.00;;;8.50
33267;BMP180;19638;49.080;11.896;2023-04-03T13:25:24;96991.00;;;8.40
33267;BMP180;19638;49.080;11.896;2023-04-03T13:29:33;96973.00;;;8.30
33267;BMP180;19638;49.080;11.896;2023-04-03T13:33:38;96981.00;;;8.50
33267;BMP180;19638;49.080;11.896;2023-04-03T13:37:54;96975.00;;;8.40
33267;BMP180;19638;49.080;11.896;2023-04-03T13:41:58;96973.00;;;8.70
33267;BMP180;19638;49.080;11.896;2023-04-03T13:46:25;96976.00;;;8.90
33267;BMP180;19638;49.080;11.896;2023-04-03T13:50:29;96977.00;;;9.30
33267;BMP180;19638;49.080;11.896;2023-04-03T13:54:36;96976.00;;;9.30
33267;BMP180;19638;49.080;11.896;2023-04-03T13:58:53;96965.00;;;9.80
33267;BMP180;19638;49.080;11.896;2023-04-03T14:03:00;96969.00;;;10.10
33267;BMP180;19638;49.080;11.896;2023-04-03T14:07:03;96978.00;;;10.50
33267;BMP180;19638;49.080;11.896;2023-04-03T14:11:11;96989.00;;;10.90
33267;BMP180;19638;49.080;11.896;2023-04-03T14:15:18;96981.00;;;10.40
33267;BMP180;19638;49.080;11.896;2023-04-03T14:19:27;96973.00;;;9.70
33267;BMP180;19638;49.080;11.896;2023-04-03T14:23:30;96977.00;;;9.30
33267;BMP180;19638;49.080;11.896;2023-04-03T14:27:38;96962.00;;;9.70
33267;BMP180;19638;49.080;11.896;2023-04-03T14:31:44;96969.00;;;9.30
33267;BMP180;19638;49.080;11.896;2023-04-03T14:35:56;96973.00;;;8.80
33267;BMP180;19638;49.080;11.896;2023-04-03T14:40:03;96969.00;;;9.00
33267;BMP180;19638;49.080;11.896;2023-04-03T14:44:13;96970.00;;;9.30
33267;BMP180;19638;49.080;11.896;2023-04-03T14:48:21;96972.00;;;8.60
33267;BMP180;19638;49.080;11.896;2023-04-03T14:52:28;96971.00;;;8.10
33267;BMP180;19638;49.080;11.896;2023-04-03T14:56:32;96966.00;;;8.40
33267;BMP180;19638;49.080;11.896;2023-04-03T15:00:37;96959.00;;;8.80
33267;BMP180;19638;49.080;11.896;2023-04-03T15:04:41;96979.00;;;9.10
33267;BMP180;19638;49.080;11.896;2023-04-03T15:08:49;96977.00;;;8.80
33267;BMP180;19638;49.080;11.896;2023-04-03T15:12:57;96982.00;;;8.40
33267;BMP180;19638;49.080;11.896;2023-04-03T15:17:04;96985.00;;;7.90
33267;BMP180;19638;49.080;11.896;2023-04-03T15:21:08;96984.00;;;8.20
33267;BMP180;19638;49.080;11.896;2023-04-03T15:25:12;96983.00;;;8.80
33267;BMP180;19638;49.080;11.896;2023-04-03T15:29:16;96980.00;;;9.00
33267;BMP180;19638;49.080;11.896;2023-04-03T15:33:19;96977.00;;;9.10
33267;BMP180;19638;49.080;11.896;2023-04-03T15:37:25;96992.00;;;8.50
33267;BMP180;19638;49.080;11.896;2023-04-03T15:41:34;96987.00;;;7.90
33267;BMP180;19638;49.080;11.896;2023-04-03T15:45:37;96977.00;;;7.80
33267;BMP180;19638;49.080;11.896;2023-04-03T15:49:44;96985.00;;;8.00
33267;BMP180;19638;49.080;11.896;2023-04-03T15:53:50;96984.00;;;8.30
33267;BMP180;19638;49.080;11.896;2023-04-03T15:57:57;96996.00;;;8.40
33267;BMP180;19638;49.080;11.896;2023-04-03T16:02:07;96983.00;;;8.30
33267;BMP180;19638;49.080;11.896;2023-04-03T16:06:16;96987.00;;;8.60
33267;BMP180;19638;49.080;11.896;2023-04-03T16:10:22;96992.00;;;8.80
33267;BMP180;19638;49.080;11.896;2023-04-03T16:14:32;96993.00;;;8.40
33267;BMP180;19638;49.080;11.896;2023-04-03T16:18:38;97001.00;;;8.20
33267;BMP180;19638;49.080;11.896;2023-04-03T16:22:53;96990.00;;;7.80
33267;BMP180;19638;49.080;11.896;2023-04-03T16:26:57;96998.00;;;7.50
33267;BMP180;19638;49.080;11.896;2023-04-03T16:31:05;96992.00;;;7.50
33267;BMP180;19638;49.080;11.896;2023-04-03T16:35:10;97006.00;;;7.40
33267;BMP180;19638;49.080;11.896;2023-04-03T16:39:15;97009.00;;;7.20
33267;BMP180;19638;49.080;11.896;2023-04-03T16:43:18;97020.00;;;6.80
33267;BMP180;19638;49.080;11.896;2023-04-03T16:47:24;97021.00;;;6.60
33267;BMP180;19638;49.080;11.896;2023-04-03T16:51:32;97037.00;;;6.40
33267;BMP180;19638;49.080;11.896;2023-04-03T16:55:35;97033.00;;;6.20
33267;BMP180;19638;49.080;11.896;2023-04-03T16:59:39;97042.00;;;6.00
33267;BMP180;19638;49.080;11.896;2023-04-03T17:03:44;97043.00;;;5.90
33267;BMP180;19638;49.080;11.896;2023-04-03T17:07:47;97037.00;;;5.70
33267;BMP180;19638;49.080;11.896;2023-04-03T17:11:50;97047.00;;;5.60
33267;BMP180;19638;49.080;11.896;2023-04-03T17:15:53;97047.00;;;5.50
33267;BMP180;19638;49.080;11.896;2023-04-03T17:19:57;97054.00;;;5.40
33267;BMP180;19638;49.080;11.896;2023-04-03T17:24:03;97056.00;;;5.30
33267;BMP180;19638;49.080;11.896;2023-04-03T17:28:08;97067.00;;;5.10
33267;BMP180;19638;49.080;11.896;2023-04-03T17:32:12;97069.00;;;5.00
33267;BMP180;19638;49.080;11.896;2023-04-03T17:36:16;97065.00;;;4.80
33267;BMP180;19638;49.080;11.896;2023-04-03T17:40:22;97071.00;;;4.60
33267;BMP180;19638;49.080;11.896;2023-04-03T17:44:25;97078.00;;;4.50
33267;BMP180;19638;49.080;11.896;2023-04-03T17:48:30;97075.00;;;4.40
33267;BMP180;19638;49.080;11.896;2023-04-03T17:52:34;97064.00;;;4.30
33267;BMP180;19638;49.080;11.896;2023-04-03T17:56:42;97076.00;;;4.20
33267;BMP180;19638;49.080;11.896;2023-04-03T18:00:48;97083.00;;;4.10
33267;BMP180;19638;49.080;11.896;2023-04-03T18:05:02;97088.00;;;4.00
33267;BMP180;19638;49.080;11.896;2023-04-03T18:09:09;97082.00;;;3.80
33267;BMP180;19638;49.080;11.896;2023-04-03T18:13:13;97083.00;;;3.70
33267;BMP180;19638;49.080;11.896;2023-04-03T18:17:17;97085.00;;;3.60
33267;BMP180;19638;49.080;11.896;2023-04-03T18:21:24;97091.00;;;3.50
33267;BMP180;19638;49.080;11.896;2023-04-03T18:25:29;97083.00;;;3.40
33267;BMP180;19638;49.080;11.896;2023-04-03T18:29:42;97089.00;;;3.20
33267;BMP180;19638;49.080;11.896;2023-04-03T18:33:52;97089.00;;;3.10
33267;BMP180;19638;49.080;11.896;2023-04-03T18:37:57;97096.00;;;3.10
33267;BMP180;19638;49.080;11.896;2023-04-03T18:42:09;97097.00;;;3.00
33267;BMP180;19638;49.080;11.896;2023-04-03T18:46:15;97095.00;;;3.00
33267;BMP180;19638;49.080;11.896;2023-04-03T18:50:20;97106.00;;;3.00
33267;BMP180;19638;49.080;11.896;2023-04-03T18:54:24;97115.00;;;2.90
33267;BMP180;19638;49.080;11.896;2023-04-03T18:58:29;97108.00;;;2.80
33267;BMP180;19638;49.080;11.896;2023-04-03T19:02:34;97106.00;;;2.70
33267;BMP180;19638;49.080;11.896;2023-04-03T19:06:40;97109.00;;;2.60
33267;BMP180;19638;49.080;11.896;2023-04-03T19:10:44;97105.00;;;2.50
33267;BMP180;19638;49.080;11.896;2023-04-03T19:14:52;97112.00;;;2.50
33267;BMP180;19638;49.080;11.896;2023-04-03T19:18:55;97100.00;;;2.40
33267;BMP180;19638;49.080;11.896;2023-04-03T19:22:59;97104.00;;;2.30
33267;BMP180;19638;49.080;11.896;2023-04-03T19:27:02;97106.00;;;2.20
33267;BMP180;19638;49.080;11.896;2023-04-03T19:31:12;97108.00;;;2.10
33267;BMP180;19638;49.080;11.896;2023-04-03T19:35:15;97113.00;;;2.10
33267;BMP180;19638;49.080;11.896;2023-04-03T19:39:17;97112.00;;;2.10
33267;BMP180;19638;49.080;11.896;2023-04-03T19:43:20;97114.00;;;2.20
33267;BMP180;19638;49.080;11.896;2023-04-03T19:47:25;97111.00;;;2.30
33267;BMP180;19638;49.080;11.896;2023-04-03T19:51:30;97109.00;;;2.40
33267;BMP180;19638;49.080;11.896;2023-04-03T19:55:32;97109.00;;;2.50
33267;BMP180;19638;49.080;11.896;2023-04-03T19:59:36;97111.00;;;2.50
33267;BMP180;19638;49.080;11.896;2023-04-03T20:03:42;97115.00;;;2.50
33267;BMP180;19638;49.080;11.896;2023-04-03T20:07:47;97128.00;;;2.50
33267;BMP180;19638;49.080;11.896;2023-04-03T20:11:51;97114.00;;;2.40
33267;BMP180;19638;49.080;11.896;2023-04-03T20:15:54;97115.00;;;2.40
33267;BMP180;19638;49.080;11.896;2023-04-03T20:20:01;97119.00;;;2.40
33267;BMP180;19638;49.080;11.896;2023-04-03T20:24:06;97116.00;;;2.30
33267;BMP180;19638;49.080;11.896;2023-04-03T20:28:13;97113.00;;;2.20
33267;BMP180;19638;49.080;11.896;2023-04-03T20:32:17;97119.00;;;2.20
33267;BMP180;19638;49.080;11.896;2023-04-03T20:36:26;97117.00;;;2.20
33267;BMP180;19638;49.080;11.896;2023-04-03T20:40:33;97120.00;;;2.30
33267;BMP180;19638;49.080;11.896;2023-04-03T20:44:38;97115.00;;;2.30
33267;BMP180;19638;49.080;11.896;2023-04-03T20:48:41;97112.00;;;2.20
33267;BMP180;19638;49.080;11.896;2023-04-03T20:52:46;97112.00;;;2.20
33267;BMP180;19638;49.080;11.896;2023-04-03T20:56:49;97112.00;;;2.30
33267;BMP180;19638;49.080;11.896;2023-04-03T21:00:53;97114.00;;;2.40
33267;BMP180;19638;49.080;11.896;2023-04-03T21:04:57;97104.00;;;2.40
33267;BMP180;19638;49.080;11.896;2023-04-03T21:22:56;97116.00;;;2.50
33267;BMP180;19638;49.080;11.896;2023-04-03T21:27:01;97112.00;;;2.50
33267;BMP180;19638;49.080;11.896;2023-04-03T21:31:05;97116.00;;;2.50
33267;BMP180;19638;49.080;11.896;2023-04-03T21:35:11;97112.00;;;2.40
33267;BMP180;19638;49.080;11.896;2023-04-03T21:39:14;97106.00;;;2.40
33267;BMP180;19638;49.080;11.896;2023-04-03T21:43:17;97102.00;;;2.40
33267;BMP180;19638;49.080;11.896;2023-04-03T21:47:20;97118.00;;;2.40
33267;BMP180;19638;49.080;11.896;2023-04-03T21:51:25;97103.00;;;2.40
33267;BMP180;19638;49.080;11.896;2023-04-03T21:55:30;97106.00;;;2.40
33267;BMP180;19638;49.080;11.896;2023-04-03T21:59:35;97109.00;;;2.40
33267;BMP180;19638;49.080;11.896;2023-04-03T22:03:40;97105.00;;;2.40
33267;BMP180;19638;49.080;11.896;2023-04-03T22:07:47;97106.00;;;2.30
33267;BMP180;19638;49.080;11.896;2023-04-03T22:11:54;97106.00;;;2.40
33267;BMP180;19638;49.080;11.896;2023-04-03T22:15:57;97104.00;;;2.40
33267;BMP180;19638;49.080;11.896;2023-04-03T22:20:02;97108.00;;;2.40
33267;BMP180;19638;49.080;11.896;2023-04-03T22:24:08;97101.00;;;2.30
33267;BMP180;19638;49.080;11.896;2023-04-03T22:28:10;97101.00;;;2.30
33267;BMP180;19638;49.080;11.896;2023-04-03T22:32:17;97101.00;;;2.40
33267;BMP180;19638;49.080;11.896;2023-04-03T22:36:27;97102.00;;;2.40
33267;BMP180;19638;49.080;11.896;2023-04-03T22:40:42;97094.00;;;2.40
33267;BMP180;19638;49.080;11.896;2023-04-03T22:44:45;97103.00;;;2.40
33267;BMP180;19638;49.080;11.896;2023-04-03T22:48:48;97097.00;;;2.40
33267;BMP180;19638;49.080;11.896;2023-04-03T22:52:53;97097.00;;;2.40
33267;BMP180;19638;49.080;11.896;2023-04-03T22:56:57;97086.00;;;2.40
33267;BMP180;19638;49.080;11.896;2023-04-03T23:01:03;97077.00;;;2.40
33267;BMP180;19638;49.080;11.896;2023-04-03T23:05:09;97085.00;;;2.40
33267;BMP180;19638;49.080;11.896;2023-04-03T23:09:15;97072.00;;;2.40
33267;BMP180;19638;49.080;11.896;2023-04-03T23:13:19;97083.00;;;2.40
33267;BMP180;19638;49.080;11.896;2023-04-03T23:17:25;97075.00;;;2.40
33267;BMP180;19638;49.080;11.896;2023-04-03T23:21:28;97080.00;;;2.40
33267;BMP180;19638;49.080;11.896;2023-04-03T23:25:31;97081.00;;;2.40
33267;BMP180;19638;49.080;11.896;2023-04-03T23:29:35;97084.00;;;2.40
33267;BMP180;19638;49.080;11.896;2023-04-03T23:33:38;97082.00;;;2.40
33267;BMP180;19638;49.080;11.896;2023-04-03T23:37:44;97074.00;;;2.40
33267;BMP180;19638;49.080;11.896;2023-04-03T23:41:51;97074.00;;;2.40
33267;BMP180;19638;49.080;11.896;2023-04-03T23:46:00;97062.00;;;2.40
33267;BMP180;19638;49.080;11.896;2023-04-03T23:50:07;97067.00;;;2.30
33267;BMP180;19638;49.080;11.896;2023-04-03T23:54:15;97071.00;;;2.30
33267;BMP180;19638;49.080;11.896;2023-04-03T23:58:19;97064.00;;;2.30
